createdAt,value
2022-12-06T00:05:46.748Z,152.20
2022-12-06T00:15:50.737Z,150.27
2022-12-06T00:25:55.944Z,146.97
2022-12-06T00:36:01.503Z,152.03
2022-12-06T00:46:09.434Z,153.20
2022-12-06T00:56:13.586Z,157.07
2022-12-06T01:06:22.991Z,156.97
2022-12-06T01:16:30.008Z,157.20
2022-12-06T01:26:37.478Z,159.10
2022-12-06T01:36:41.255Z,162.57
2022-12-06T01:46:47.020Z,174.70
2022-12-06T01:56:52.882Z,176.40
2022-12-06T02:06:59.276Z,167.50
2022-12-06T02:17:29.591Z,166.53
2022-12-06T02:27:59.868Z,162.30
2022-12-06T02:38:13.213Z,153.87
2022-12-06T02:48:18.767Z,157.07
2022-12-06T02:58:23.917Z,145.50
2022-12-06T03:08:41.146Z,146.97
2022-12-06T03:18:53.667Z,143.53
2022-12-06T03:29:00.044Z,145.10
2022-12-06T03:39:08.081Z,134.53
2022-12-06T03:49:16.857Z,129.03
2022-12-06T03:59:22.096Z,124.67
2022-12-06T04:09:43.475Z,122.57
2022-12-06T04:19:52.079Z,126.03
2022-12-06T04:30:13.735Z,125.37
2022-12-06T04:40:19.121Z,121.53
2022-12-06T04:50:23.011Z,118.60
2022-12-06T05:00:28.491Z,117.83
2022-12-06T05:10:33.215Z,113.40
2022-12-06T05:20:38.691Z,118.00
2022-12-06T05:30:42.485Z,115.63
2022-12-06T05:40:48.583Z,112.77
2022-12-06T05:50:53.885Z,114.27
2022-12-06T06:00:59.180Z,113.07
2022-12-06T06:11:03.104Z,114.93
2022-12-06T06:21:08.463Z,117.50
2022-12-06T06:31:12.998Z,112.53
2022-12-06T06:41:18.365Z,114.43
2022-12-06T06:51:22.573Z,116.20
2022-12-06T07:01:28.856Z,108.67
2022-12-06T07:11:32.634Z,116.93
2022-12-06T07:21:38.025Z,106.30
2022-12-06T07:31:41.712Z,112.87
2022-12-06T07:42:04.293Z,110.17
2022-12-06T07:52:23.838Z,107.67
2022-12-06T08:02:30.155Z,108.47
2022-12-06T08:12:34.173Z,108.47
2022-12-06T08:22:39.294Z,102.03
2022-12-06T08:32:42.930Z,110.10
2022-12-06T08:42:47.738Z,99.83
2022-12-06T08:52:51.912Z,103.43
2022-12-06T09:02:57.134Z,107.03
2022-12-06T09:13:00.910Z,98.63
2022-12-06T09:23:05.993Z,104.90
2022-12-06T09:33:09.703Z,109.40
2022-12-06T09:43:35.369Z,98.97
2022-12-06T09:53:58.304Z,99.37
2022-12-06T10:04:28.617Z,105.70
2022-12-06T10:14:56.550Z,101.57
2022-12-06T10:25:10.610Z,103.07
2022-12-06T10:35:21.572Z,105.77
2022-12-06T10:45:50.609Z,112.10
2022-12-06T10:55:59.987Z,100.80
2022-12-06T11:06:11.817Z,108.53
2022-12-06T11:16:20.561Z,107.90
2022-12-06T11:26:37.520Z,109.07
2022-12-06T11:36:41.293Z,105.90
2022-12-06T11:46:46.607Z,111.40
2022-12-06T11:56:51.512Z,103.33
2022-12-06T12:07:01.361Z,112.80
2022-12-06T12:17:06.145Z,103.40
2022-12-06T12:27:36.593Z,103.17
2022-12-06T12:37:40.457Z,107.47
2022-12-06T12:47:59.645Z,108.37
2022-12-06T12:58:03.612Z,104.60
2022-12-06T13:08:18.198Z,102.07
2022-12-06T13:18:27.162Z,97.00
2022-12-06T13:28:36.980Z,94.30
2022-12-06T13:38:42.601Z,91.07
2022-12-06T13:48:56.195Z,88.47
2022-12-06T13:59:03.546Z,89.73
2022-12-06T14:09:13.198Z,82.73
2022-12-06T14:19:20.265Z,88.90
2022-12-06T14:29:26.471Z,89.90
2022-12-06T14:39:32.698Z,80.67
2022-12-06T14:49:55.474Z,90.30
2022-12-06T15:00:20.710Z,100.53
2022-12-06T15:10:32.535Z,94.63
2022-12-06T15:20:36.232Z,87.97
2022-12-06T15:30:41.382Z,94.40
2022-12-06T15:40:47.347Z,100.33
2022-12-06T15:50:52.608Z,91.67
2022-12-06T16:00:57.674Z,95.90
2022-12-06T16:11:11.862Z,91.60
2022-12-06T16:21:22.369Z,88.60
2022-12-06T16:31:28.181Z,91.87
2022-12-06T16:41:35.972Z,109.60
2022-12-06T16:51:41.365Z,90.90
2022-12-06T17:01:50.215Z,92.27
2022-12-06T17:12:06.351Z,92.40
2022-12-06T17:22:11.830Z,90.67
2022-12-06T17:32:17.939Z,93.43
2022-12-06T17:42:39.886Z,88.67
2022-12-06T17:52:44.918Z,92.03
2022-12-06T18:02:48.947Z,88.07
2022-12-06T18:12:53.992Z,92.30
2022-12-06T18:22:57.757Z,91.70
2022-12-06T18:33:04.297Z,89.30
2022-12-06T18:43:07.986Z,87.53
2022-12-06T18:53:13.050Z,89.57
2022-12-06T19:03:17.104Z,89.23
2022-12-06T19:13:22.168Z,91.03
2022-12-06T19:23:28.915Z,106.50
2022-12-06T19:33:38.381Z,95.40
2022-12-06T19:44:00.212Z,100.03
2022-12-06T19:54:07.158Z,91.17
2022-12-06T20:04:15.073Z,96.43
2022-12-06T20:14:20.106Z,90.77
2022-12-06T20:24:24.306Z,92.73
2022-12-06T20:34:34.050Z,96.40
2022-12-06T20:44:38.499Z,95.47
2022-12-06T20:54:43.693Z,99.07
2022-12-06T21:04:47.475Z,104.60
2022-12-06T21:14:52.563Z,101.97
2022-12-06T21:24:56.749Z,99.37
2022-12-06T21:35:01.741Z,100.50
2022-12-06T21:45:06.226Z,108.47
2022-12-06T21:55:12.770Z,105.80
2022-12-06T22:05:16.686Z,103.77
2022-12-06T22:15:21.881Z,102.67
2022-12-06T22:25:25.876Z,96.30
2022-12-06T22:35:31.150Z,83.20
2022-12-06T22:45:35.320Z,93.20
2022-12-06T22:55:40.304Z,90.40
2022-12-06T23:05:44.063Z,95.47
2022-12-06T23:15:57.506Z,91.77
2022-12-06T23:26:06.061Z,87.27
2022-12-06T23:36:15.043Z,88.77
2022-12-06T23:46:22.660Z,91.43
2022-12-06T23:56:30.938Z,87.33
